Conway — VJN3740 — position and weather

sailwx.info

Track history (hours):
 
Tides and Currents Weather Stations Pressure Air Temp Water Temp Dewpoint Dewpoint Depression Visibility Wind Speed Wind Dir Waves Ship Positions

Conway

Last reported at 2017-Aug-30 07:22 UTC. Time now 2017-Sep-20 22:08 UTC.
Position S 27°27' E 153°06'.
Warning: this ship's position is 21 days out of date.

Length 15 m; draft 1.2 m.

Type: Pilot. MMSI: 503607300.

Date/timePositionNaut miles runAvg speedWind from/ knotsBaromVisibWave heightAir tempDewpointWater temp
2017-Aug-30 07:22S 27°27' E 153°06'0 0.4
2017-Aug-30 07:00S 27°27' E 153°06'3 5.9
2017-Aug-30 06:30S 27°25' E 153°09'5 9.7
2017-Aug-30 06:00S 27°20' E 153°11'4 7.9
2017-Aug-30 05:30S 27°19' E 153°15'2 3.7
2017-Aug-30 05:00S 27°20' E 153°17'3 4.3
2017-Aug-30 04:22S 27°22' E 153°15'3 1.1
2017-Aug-30 02:09S 27°20' E 153°16'1 3.0
2017-Aug-30 01:57S 27°20' E 153°16'5 5.0
2017-Aug-30 00:51S 27°25' E 153°13'1 1.8
2017-Aug-30 00:29S 27°26' E 153°13'5 4.7
2017-Aug-29 23:23S 27°20' E 153°12'3 8.2
2017-Aug-29 23:00S 27°22' E 153°10'5 3.2
2017-Aug-29 21:21S 27°27' E 153°06'0 0.0
2017-Aug-29 21:00S 27°27' E 153°06'0 0.0
2017-Aug-29 20:30S 27°27' E 153°06'0 0.0
2017-Aug-29 20:00S 27°27' E 153°06'0 0.0
2017-Aug-29 19:27S 27°27' E 153°06'0 0.0
2017-Aug-29 19:00S 27°27' E 153°06'0 0.0
2017-Aug-29 18:30S 27°27' E 153°06'0 0.0
2017-Aug-29 18:00S 27°27' E 153°06'0 0.0
2017-Aug-29 17:30S 27°27' E 153°06'0 0.0
2017-Aug-29 17:00S 27°27' E 153°06'0 0.0
2017-Aug-29 16:27S 27°27' E 153°06'0 0.0
2017-Aug-29 15:54S 27°27' E 153°06'0 0.0
2017-Aug-29 15:30S 27°27' E 153°06'0 0.0
2017-Aug-29 15:00S 27°27' E 153°06'0 0.0
2017-Aug-29 14:27S 27°27' E 153°06'0 0.0
2017-Aug-29 14:00S 27°27' E 153°06'0 0.0
2017-Aug-29 13:15S 27°27' E 153°06'0 0.0
2017-Aug-29 12:48S 27°27' E 153°06'0 0.0
2017-Aug-29 12:30S 27°27' E 153°06'0 0.0
2017-Aug-29 11:51S 27°27' E 153°06'0 0.0
2017-Aug-29 11:24S 27°27' E 153°06'0 0.0
2017-Aug-29 11:00S 27°27' E 153°06'0 0.0
2017-Aug-29 10:30S 27°27' E 153°06'0 0.0
2017-Aug-29 10:00S 27°27' E 153°06'0 0.0
2017-Aug-28 22:00S 27°27' E 153°06'0 0.0
2017-Aug-28 21:30S 27°27' E 153°06'0 0.0
2017-Aug-28 20:42S 27°27' E 153°06'0 0.0
2017-Aug-28 20:12S 27°27' E 153°06'0 0.0
2017-Aug-28 20:00S 27°27' E 153°06'0 0.0
2017-Aug-28 19:30S 27°27' E 153°06'0 0.0
2017-Aug-28 19:00S 27°27' E 153°06'0 0.0
2017-Aug-28 18:30S 27°27' E 153°06'0 0.0
2017-Aug-28 17:48S 27°27' E 153°06'0 0.0
2017-Aug-28 17:30S 27°27' E 153°06'0 0.0
2017-Aug-28 16:48S 27°27' E 153°06'0 0.0
2017-Aug-28 16:30S 27°27' E 153°06'0 0.0
2017-Aug-28 16:00S 27°27' E 153°06'0 0.0
2017-Aug-28 15:27S 27°27' E 153°06'0 0.0
2017-Aug-28 11:03S 27°27' E 153°06'0 0.0
2017-Aug-28 10:21S 27°27' E 153°06'0 0.0
2017-Aug-28 09:48S 27°27' E 153°06'0 0.0
2017-Aug-28 09:30S 27°27' E 153°06'0 0.0
2017-Aug-28 07:39S 27°27' E 153°06'0 0.0
2017-Aug-27 21:03S 27°27' E 153°06'0 0.0
2017-Aug-27 21:00S 27°27' E 153°06'0 0.0
2017-Aug-27 20:27S 27°27' E 153°06'0 0.0
2017-Aug-27 20:00S 27°27' E 153°06'0 0.0
2017-Aug-27 19:30S 27°27' E 153°06'0 0.0
2017-Aug-27 19:00S 27°27' E 153°06'0 0.0
2017-Aug-27 18:30S 27°27' E 153°06'0 0.0
2017-Aug-27 17:57S 27°27' E 153°06'0 0.0
2017-Aug-27 17:30S 27°27' E 153°06'0 0.0
2017-Aug-27 17:00S 27°27' E 153°06'0 0.0
2017-Aug-27 16:27S 27°27' E 153°06'0 0.0
2017-Aug-27 16:00S 27°27' E 153°06'0 0.0
2017-Aug-27 15:30S 27°27' E 153°06'0 0.0
2017-Aug-27 15:00S 27°27' E 153°06'0 0.0
2017-Aug-27 14:30S 27°27' E 153°06'0 0.0
2017-Aug-27 14:00S 27°27' E 153°06'0 0.0
2017-Aug-27 13:30S 27°27' E 153°06'0 0.0
2017-Aug-27 12:57S 27°27' E 153°06'0 0.0
2017-Aug-27 12:27S 27°27' E 153°06'0 0.0
2017-Aug-27 12:00S 27°27' E 153°06'0 0.0
2017-Aug-27 11:27S 27°27' E 153°06'0 0.0
2017-Aug-27 10:57S 27°27' E 153°06'0 0.0
2017-Aug-27 10:30S 27°27' E 153°06'0 0.0
2017-Aug-27 10:00S 27°27' E 153°06'0 0.0
2017-Aug-27 09:30S 27°27' E 153°06'0 0.0
2017-Aug-27 08:45S 27°27' E 153°06'0 0.0
2017-Aug-27 08:24S 27°27' E 153°06'0 0.0
2017-Aug-27 07:54S 27°27' E 153°06'0 0.0
2017-Aug-27 07:21S 27°27' E 153°06'0 0.0
2017-Aug-27 06:39S 27°27' E 153°06'0 0.0
2017-Aug-27 06:10S 27°27' E 153°06'4 7.5
2017-Aug-27 05:42S 27°24' E 153°09'2 9.0
2017-Aug-27 05:30S 27°22' E 153°10'4 6.6
2017-Aug-27 04:58S 27°21' E 153°13'3 1.0
2017-Aug-27 02:20S 27°20' E 153°16'3 8.8
2017-Aug-27 01:59S 27°20' E 153°12'4 8.8
2017-Aug-27 01:31S 27°23' E 153°09'4 0.9
2017-Aug-26 20:29S 27°27' E 153°06'0 0.0
2017-Aug-26 19:56S 27°27' E 153°06'0 0.0
2017-Aug-26 19:29S 27°27' E 153°06'0 0.0
2017-Aug-26 18:59S 27°27' E 153°06'0 0.0
2017-Aug-26 18:26S 27°27' E 153°06'0 0.0
2017-Aug-26 17:59S 27°27' E 153°06'0 0.0
2017-Aug-26 17:29S 27°27' E 153°06'0 0.0
2017-Aug-26 16:59S 27°27' E 153°06'0 0.0
2017-Aug-26 16:29S 27°27' E 153°06'0 0.0
2017-Aug-26 15:56S 27°27' E 153°06'0 0.0
2017-Aug-26 09:35S 27°27' E 153°06'0 0.0
2017-Aug-26 09:29S 27°27' E 153°06'0 0.0
2017-Aug-26 08:56S 27°27' E 153°06'0 0.0
2017-Aug-26 05:41S 27°27' E 153°06'0 0.0
2017-Aug-25 20:37S 27°27' E 153°06'0 0.0
2017-Aug-25 20:22S 27°27' E 153°06'0 0.0
2017-Aug-25 19:55S 27°27' E 153°06'0 0.0
2017-Aug-25 19:25S 27°27' E 153°06'0 0.0
2017-Aug-25 18:55S 27°27' E 153°06'0 0.0
2017-Aug-25 18:28S 27°27' E 153°06'0 0.0
2017-Aug-25 17:58S 27°27' E 153°06'0 0.0
2017-Aug-25 17:28S 27°27' E 153°06'0 0.0
2017-Aug-25 16:55S 27°27' E 153°06'0 0.0
2017-Aug-25 16:28S 27°27' E 153°06'0 0.0
2017-Aug-25 15:58S 27°27' E 153°06'0 0.0
2017-Aug-25 15:28S 27°27' E 153°06'0 0.0
2017-Aug-24 20:16S 27°27' E 153°06'0 0.0
2017-Aug-24 19:55S 27°27' E 153°06'0 0.0
2017-Aug-24 19:28S 27°27' E 153°06'0 0.0
2017-Aug-24 18:58S 27°27' E 153°06'0 0.0
2017-Aug-24 18:28S 27°27' E 153°06'0 0.0
2017-Aug-24 17:58S 27°27' E 153°06'0 0.0
2017-Aug-24 17:25S 27°27' E 153°06'0 0.0
2017-Aug-24 16:55S 27°27' E 153°06'0 0.0
2017-Aug-24 16:28S 27°27' E 153°06'0 0.0
2017-Aug-24 15:58S 27°27' E 153°06'0 0.0
2017-Aug-24 15:28S 27°27' E 153°06'0 0.0
2017-Aug-24 14:58S 27°27' E 153°06'0 0.0
2017-Aug-24 09:07S 27°27' E 153°06'0 0.0
2017-Aug-24 08:55S 27°27' E 153°06'0 0.0
2017-Aug-24 08:28S 27°27' E 153°06'0 0.0
2017-Aug-24 07:40S 27°27' E 153°06'0 0.0
2017-Aug-24 07:28S 27°27' E 153°06'0 0.0
2017-Aug-24 06:58S 27°27' E 153°06'0 0.0
2017-Aug-23 20:46S 27°27' E 153°06'0 0.0
2017-Aug-23 20:22S 27°27' E 153°06'0 0.0
2017-Aug-23 19:46S 27°27' E 153°06'0 0.0
2017-Aug-23 19:28S 27°27' E 153°06'0 0.0
2017-Aug-23 18:58S 27°27' E 153°06'0 0.0
2017-Aug-23 18:28S 27°27' E 153°06'0 0.0
2017-Aug-23 17:52S 27°27' E 153°06'0 0.0
2017-Aug-23 17:28S 27°27' E 153°06'0 0.0
2017-Aug-23 16:55S 27°27' E 153°06'0 0.0
2017-Aug-23 16:25S 27°27' E 153°06'0 0.0
2017-Aug-23 15:55S 27°27' E 153°06'0 0.0
2017-Aug-23 15:28S 27°27' E 153°06'0 0.0
2017-Aug-23 08:07S 27°27' E 153°06'0 0.0
2017-Aug-23 07:58S 27°27' E 153°06'0 0.0
2017-Aug-22 20:19S 27°27' E 153°06'0 0.0
2017-Aug-22 19:46S 27°27' E 153°06'0 0.0
2017-Aug-22 19:28S 27°27' E 153°06'0 0.0
2017-Aug-22 18:58S 27°27' E 153°06'0 0.0
2017-Aug-22 18:28S 27°27' E 153°06'0 0.0
2017-Aug-22 17:55S 27°27' E 153°06'0 0.0
2017-Aug-22 17:25S 27°27' E 153°06'0 0.0
2017-Aug-22 16:55S 27°27' E 153°06'0 0.0
2017-Aug-22 16:28S 27°27' E 153°06'0 0.0
2017-Aug-22 15:58S 27°27' E 153°06'0 0.0
2017-Aug-22 15:28S 27°27' E 153°06'0 0.0
2017-Aug-22 14:49S 27°27' E 153°06'0 0.0
2017-Aug-21 15:22S 27°27' E 153°06'0 0.0
2017-Aug-20 19:55S 27°27' E 153°06'0 0.0
2017-Aug-20 19:25S 27°27' E 153°06'0 0.0
2017-Aug-20 18:58S 27°27' E 153°06'0 0.0
2017-Aug-20 18:28S 27°27' E 153°06'0 0.0
2017-Aug-20 17:55S 27°27' E 153°06'0 0.0
2017-Aug-20 17:28S 27°27' E 153°06'0 0.0
2017-Aug-20 16:55S 27°27' E 153°06'0 0.0
2017-Aug-20 16:28S 27°27' E 153°06'0 0.0
2017-Aug-20 15:58S 27°27' E 153°06'0 0.0
2017-Aug-20 15:28S 27°27' E 153°06'0 0.0
2017-Aug-20 14:58S 27°27' E 153°06'0 0.0
2017-Aug-20 14:28S 27°27' E 153°06'0 0.0
2017-Aug-20 13:58S 27°27' E 153°06'0 0.0
2017-Aug-20 13:28S 27°27' E 153°06'  
Track history (hours):
 
Tides and Currents Weather Stations Pressure Air Temp Water Temp Dewpoint Dewpoint Depression Visibility Wind Speed Wind Dir Waves Ship Positions

Conway

Last reported at 2017-Aug-30 07:22 UTC. Time now 2017-Sep-20 22:08 UTC.
Position S 27°27' E 153°06'.
Warning: this ship's position is 21 days out of date.

Length 15 m; draft 1.2 m.

Type: Pilot. MMSI: 503607300.

Date/timePositionNaut miles runAvg speedWind from/ knotsBaromVisibWave heightAir tempDewpointWater temp
2017-Aug-30 07:22S 27°27' E 153°06'0 0.4
2017-Aug-30 07:00S 27°27' E 153°06'3 5.9
2017-Aug-30 06:30S 27°25' E 153°09'5 9.7
2017-Aug-30 06:00S 27°20' E 153°11'4 7.9
2017-Aug-30 05:30S 27°19' E 153°15'2 3.7
2017-Aug-30 05:00S 27°20' E 153°17'3 4.3
2017-Aug-30 04:22S 27°22' E 153°15'3 1.1
2017-Aug-30 02:09S 27°20' E 153°16'1 3.0
2017-Aug-30 01:57S 27°20' E 153°16'5 5.0
2017-Aug-30 00:51S 27°25' E 153°13'1 1.8
2017-Aug-30 00:29S 27°26' E 153°13'5 4.7
2017-Aug-29 23:23S 27°20' E 153°12'3 8.2
2017-Aug-29 23:00S 27°22' E 153°10'5 3.2
2017-Aug-29 21:21S 27°27' E 153°06'0 0.0
2017-Aug-29 21:00S 27°27' E 153°06'0 0.0
2017-Aug-29 20:30S 27°27' E 153°06'0 0.0
2017-Aug-29 20:00S 27°27' E 153°06'0 0.0
2017-Aug-29 19:27S 27°27' E 153°06'0 0.0
2017-Aug-29 19:00S 27°27' E 153°06'0 0.0
2017-Aug-29 18:30S 27°27' E 153°06'0 0.0
2017-Aug-29 18:00S 27°27' E 153°06'0 0.0
2017-Aug-29 17:30S 27°27' E 153°06'0 0.0
2017-Aug-29 17:00S 27°27' E 153°06'0 0.0
2017-Aug-29 16:27S 27°27' E 153°06'0 0.0
2017-Aug-29 15:54S 27°27' E 153°06'0 0.0
2017-Aug-29 15:30S 27°27' E 153°06'0 0.0
2017-Aug-29 15:00S 27°27' E 153°06'0 0.0
2017-Aug-29 14:27S 27°27' E 153°06'0 0.0
2017-Aug-29 14:00S 27°27' E 153°06'0 0.0
2017-Aug-29 13:15S 27°27' E 153°06'0 0.0
2017-Aug-29 12:48S 27°27' E 153°06'0 0.0
2017-Aug-29 12:30S 27°27' E 153°06'0 0.0
2017-Aug-29 11:51S 27°27' E 153°06'0 0.0
2017-Aug-29 11:24S 27°27' E 153°06'0 0.0
2017-Aug-29 11:00S 27°27' E 153°06'0 0.0
2017-Aug-29 10:30S 27°27' E 153°06'0 0.0
2017-Aug-29 10:00S 27°27' E 153°06'0 0.0
2017-Aug-28 22:00S 27°27' E 153°06'0 0.0
2017-Aug-28 21:30S 27°27' E 153°06'0 0.0
2017-Aug-28 20:42S 27°27' E 153°06'0 0.0
2017-Aug-28 20:12S 27°27' E 153°06'0 0.0
2017-Aug-28 20:00S 27°27' E 153°06'0 0.0
2017-Aug-28 19:30S 27°27' E 153°06'0 0.0
2017-Aug-28 19:00S 27°27' E 153°06'0 0.0
2017-Aug-28 18:30S 27°27' E 153°06'0 0.0
2017-Aug-28 17:48S 27°27' E 153°06'0 0.0
2017-Aug-28 17:30S 27°27' E 153°06'0 0.0
2017-Aug-28 16:48S 27°27' E 153°06'0 0.0
2017-Aug-28 16:30S 27°27' E 153°06'0 0.0
2017-Aug-28 16:00S 27°27' E 153°06'0 0.0
2017-Aug-28 15:27S 27°27' E 153°06'0 0.0
2017-Aug-28 11:03S 27°27' E 153°06'0 0.0
2017-Aug-28 10:21S 27°27' E 153°06'0 0.0
2017-Aug-28 09:48S 27°27' E 153°06'0 0.0
2017-Aug-28 09:30S 27°27' E 153°06'0 0.0
2017-Aug-28 07:39S 27°27' E 153°06'0 0.0
2017-Aug-27 21:03S 27°27' E 153°06'0 0.0
2017-Aug-27 21:00S 27°27' E 153°06'0 0.0
2017-Aug-27 20:27S 27°27' E 153°06'0 0.0
2017-Aug-27 20:00S 27°27' E 153°06'0 0.0
2017-Aug-27 19:30S 27°27' E 153°06'0 0.0
2017-Aug-27 19:00S 27°27' E 153°06'0 0.0
2017-Aug-27 18:30S 27°27' E 153°06'0 0.0
2017-Aug-27 17:57S 27°27' E 153°06'0 0.0
2017-Aug-27 17:30S 27°27' E 153°06'0 0.0
2017-Aug-27 17:00S 27°27' E 153°06'0 0.0
2017-Aug-27 16:27S 27°27' E 153°06'0 0.0
2017-Aug-27 16:00S 27°27' E 153°06'0 0.0
2017-Aug-27 15:30S 27°27' E 153°06'0 0.0
2017-Aug-27 15:00S 27°27' E 153°06'0 0.0
2017-Aug-27 14:30S 27°27' E 153°06'0 0.0
2017-Aug-27 14:00S 27°27' E 153°06'0 0.0
2017-Aug-27 13:30S 27°27' E 153°06'0 0.0
2017-Aug-27 12:57S 27°27' E 153°06'0 0.0
2017-Aug-27 12:27S 27°27' E 153°06'0 0.0
2017-Aug-27 12:00S 27°27' E 153°06'0 0.0
2017-Aug-27 11:27S 27°27' E 153°06'0 0.0
2017-Aug-27 10:57S 27°27' E 153°06'0 0.0
2017-Aug-27 10:30S 27°27' E 153°06'0 0.0
2017-Aug-27 10:00S 27°27' E 153°06'0 0.0
2017-Aug-27 09:30S 27°27' E 153°06'0 0.0
2017-Aug-27 08:45S 27°27' E 153°06'0 0.0
2017-Aug-27 08:24S 27°27' E 153°06'0 0.0
2017-Aug-27 07:54S 27°27' E 153°06'0 0.0
2017-Aug-27 07:21S 27°27' E 153°06'0 0.0
2017-Aug-27 06:39S 27°27' E 153°06'0 0.0
2017-Aug-27 06:10S 27°27' E 153°06'4 7.5
2017-Aug-27 05:42S 27°24' E 153°09'2 9.0
2017-Aug-27 05:30S 27°22' E 153°10'4 6.6
2017-Aug-27 04:58S 27°21' E 153°13'3 1.0
2017-Aug-27 02:20S 27°20' E 153°16'3 8.8
2017-Aug-27 01:59S 27°20' E 153°12'4 8.8
2017-Aug-27 01:31S 27°23' E 153°09'4 0.9
2017-Aug-26 20:29S 27°27' E 153°06'0 0.0
2017-Aug-26 19:56S 27°27' E 153°06'0 0.0
2017-Aug-26 19:29S 27°27' E 153°06'0 0.0
2017-Aug-26 18:59S 27°27' E 153°06'0 0.0
2017-Aug-26 18:26S 27°27' E 153°06'0 0.0
2017-Aug-26 17:59S 27°27' E 153°06'0 0.0
2017-Aug-26 17:29S 27°27' E 153°06'0 0.0
2017-Aug-26 16:59S 27°27' E 153°06'0 0.0
2017-Aug-26 16:29S 27°27' E 153°06'0 0.0
2017-Aug-26 15:56S 27°27' E 153°06'0 0.0
2017-Aug-26 09:35S 27°27' E 153°06'0 0.0
2017-Aug-26 09:29S 27°27' E 153°06'0 0.0
2017-Aug-26 08:56S 27°27' E 153°06'0 0.0
2017-Aug-26 05:41S 27°27' E 153°06'0 0.0
2017-Aug-25 20:37S 27°27' E 153°06'0 0.0
2017-Aug-25 20:22S 27°27' E 153°06'0 0.0
2017-Aug-25 19:55S 27°27' E 153°06'0 0.0
2017-Aug-25 19:25S 27°27' E 153°06'0 0.0
2017-Aug-25 18:55S 27°27' E 153°06'0 0.0
2017-Aug-25 18:28S 27°27' E 153°06'0 0.0
2017-Aug-25 17:58S 27°27' E 153°06'0 0.0
2017-Aug-25 17:28S 27°27' E 153°06'0 0.0
2017-Aug-25 16:55S 27°27' E 153°06'0 0.0
2017-Aug-25 16:28S 27°27' E 153°06'0 0.0
2017-Aug-25 15:58S 27°27' E 153°06'0 0.0
2017-Aug-25 15:28S 27°27' E 153°06'0 0.0
2017-Aug-24 20:16S 27°27' E 153°06'0 0.0
2017-Aug-24 19:55S 27°27' E 153°06'0 0.0
2017-Aug-24 19:28S 27°27' E 153°06'0 0.0
2017-Aug-24 18:58S 27°27' E 153°06'0 0.0
2017-Aug-24 18:28S 27°27' E 153°06'0 0.0
2017-Aug-24 17:58S 27°27' E 153°06'0 0.0
2017-Aug-24 17:25S 27°27' E 153°06'0 0.0
2017-Aug-24 16:55S 27°27' E 153°06'0 0.0
2017-Aug-24 16:28S 27°27' E 153°06'0 0.0
2017-Aug-24 15:58S 27°27' E 153°06'0 0.0
2017-Aug-24 15:28S 27°27' E 153°06'0 0.0
2017-Aug-24 14:58S 27°27' E 153°06'0 0.0
2017-Aug-24 09:07S 27°27' E 153°06'0 0.0
2017-Aug-24 08:55S 27°27' E 153°06'0 0.0
2017-Aug-24 08:28S 27°27' E 153°06'0 0.0
2017-Aug-24 07:40S 27°27' E 153°06'0 0.0
2017-Aug-24 07:28S 27°27' E 153°06'0 0.0
2017-Aug-24 06:58S 27°27' E 153°06'0 0.0
2017-Aug-23 20:46S 27°27' E 153°06'0 0.0
2017-Aug-23 20:22S 27°27' E 153°06'0 0.0
2017-Aug-23 19:46S 27°27' E 153°06'0 0.0
2017-Aug-23 19:28S 27°27' E 153°06'0 0.0
2017-Aug-23 18:58S 27°27' E 153°06'0 0.0
2017-Aug-23 18:28S 27°27' E 153°06'0 0.0
2017-Aug-23 17:52S 27°27' E 153°06'0 0.0
2017-Aug-23 17:28S 27°27' E 153°06'0 0.0
2017-Aug-23 16:55S 27°27' E 153°06'0 0.0
2017-Aug-23 16:25S 27°27' E 153°06'0 0.0
2017-Aug-23 15:55S 27°27' E 153°06'0 0.0
2017-Aug-23 15:28S 27°27' E 153°06'0 0.0
2017-Aug-23 08:07S 27°27' E 153°06'0 0.0
2017-Aug-23 07:58S 27°27' E 153°06'0 0.0
2017-Aug-22 20:19S 27°27' E 153°06'0 0.0
2017-Aug-22 19:46S 27°27' E 153°06'0 0.0
2017-Aug-22 19:28S 27°27' E 153°06'0 0.0
2017-Aug-22 18:58S 27°27' E 153°06'0 0.0
2017-Aug-22 18:28S 27°27' E 153°06'0 0.0
2017-Aug-22 17:55S 27°27' E 153°06'0 0.0
2017-Aug-22 17:25S 27°27' E 153°06'0 0.0
2017-Aug-22 16:55S 27°27' E 153°06'0 0.0
2017-Aug-22 16:28S 27°27' E 153°06'0 0.0
2017-Aug-22 15:58S 27°27' E 153°06'0 0.0
2017-Aug-22 15:28S 27°27' E 153°06'0 0.0
2017-Aug-22 14:49S 27°27' E 153°06'0 0.0
2017-Aug-21 15:22S 27°27' E 153°06'0 0.0
2017-Aug-20 19:55S 27°27' E 153°06'0 0.0
2017-Aug-20 19:25S 27°27' E 153°06'0 0.0
2017-Aug-20 18:58S 27°27' E 153°06'0 0.0
2017-Aug-20 18:28S 27°27' E 153°06'0 0.0
2017-Aug-20 17:55S 27°27' E 153°06'0 0.0
2017-Aug-20 17:28S 27°27' E 153°06'0 0.0
2017-Aug-20 16:55S 27°27' E 153°06'0 0.0
2017-Aug-20 16:28S 27°27' E 153°06'0 0.0
2017-Aug-20 15:58S 27°27' E 153°06'0 0.0
2017-Aug-20 15:28S 27°27' E 153°06'0 0.0
2017-Aug-20 14:58S 27°27' E 153°06'0 0.0
2017-Aug-20 14:28S 27°27' E 153°06'0 0.0
2017-Aug-20 13:58S 27°27' E 153°06'0 0.0
2017-Aug-20 13:28S 27°27' E 153°06'  

Dump ship's entire track history